createdAt,value
2018-08-25T00:00:27.966Z,15.90
2018-08-25T00:01:02.003Z,15.90
2018-08-25T00:01:36.439Z,15.90
2018-08-25T00:02:11.012Z,15.90
2018-08-25T00:02:45.016Z,15.90
2018-08-25T00:03:18.998Z,15.90
2018-08-25T00:03:53.068Z,15.90
2018-08-25T00:04:27.243Z,15.90
2018-08-25T00:05:01.261Z,15.90
2018-08-25T00:05:35.620Z,15.90
2018-08-25T00:06:09.681Z,15.90
2018-08-25T00:06:43.811Z,15.90
2018-08-25T00:07:17.491Z,15.90
2018-08-25T00:07:51.916Z,15.90
2018-08-25T00:08:25.801Z,15.80
2018-08-25T00:08:59.870Z,15.90
2018-08-25T00:09:34.248Z,15.90
2018-08-25T00:10:08.510Z,15.90
2018-08-25T00:10:42.772Z,15.90
2018-08-25T00:11:17.119Z,15.90
2018-08-25T00:11:51.328Z,15.80
2018-08-25T00:12:24.986Z,15.90
2018-08-25T00:12:58.910Z,15.80
2018-08-25T00:13:33.052Z,15.80
2018-08-25T00:14:07.217Z,15.80
2018-08-25T00:14:41.209Z,15.80
2018-08-25T00:15:15.448Z,15.80
2018-08-25T00:15:49.351Z,15.80
2018-08-25T00:16:23.298Z,15.90
2018-08-25T00:16:57.339Z,15.80
2018-08-25T00:17:31.140Z,15.80
2018-08-25T00:18:05.540Z,15.80
2018-08-25T00:18:39.589Z,15.80
2018-08-25T00:19:13.660Z,15.80
2018-08-25T00:19:47.618Z,15.80
2018-08-25T00:20:21.480Z,15.80
2018-08-25T00:20:55.436Z,15.80
2018-08-25T00:21:29.368Z,15.80
2018-08-25T00:22:05.005Z,15.80
2018-08-25T00:22:39.000Z,15.80
2018-08-25T00:23:13.111Z,15.80
2018-08-25T00:23:46.917Z,15.80
2018-08-25T00:24:20.908Z,15.80
2018-08-25T00:24:54.979Z,15.80
2018-08-25T00:25:28.747Z,15.80
2018-08-25T00:26:02.515Z,15.80
2018-08-25T00:26:36.640Z,15.80
2018-08-25T00:27:10.835Z,15.80
2018-08-25T00:27:45.028Z,15.80
2018-08-25T00:28:19.040Z,15.80
2018-08-25T00:28:53.090Z,15.80
2018-08-25T00:29:27.093Z,15.80
2018-08-25T00:30:00.938Z,15.80
2018-08-25T00:30:40.713Z,15.80
2018-08-25T00:31:21.160Z,15.80
2018-08-25T00:31:54.892Z,15.80
2018-08-25T00:32:29.156Z,15.80
2018-08-25T00:33:03.017Z,15.80
2018-08-25T00:33:36.980Z,15.80
2018-08-25T00:34:11.225Z,15.80
2018-08-25T00:34:45.180Z,15.80
2018-08-25T00:35:19.195Z,15.80
2018-08-25T00:35:53.072Z,15.80
2018-08-25T00:36:26.798Z,15.80
2018-08-25T00:37:00.803Z,15.80
2018-08-25T00:37:34.954Z,15.80
2018-08-25T00:38:08.935Z,15.80
2018-08-25T00:38:43.117Z,15.80
2018-08-25T00:39:17.208Z,15.80
2018-08-25T00:39:50.863Z,15.80
2018-08-25T00:40:24.754Z,15.80
2018-08-25T00:40:58.637Z,15.80
2018-08-25T00:41:32.519Z,15.80
2018-08-25T00:42:06.778Z,15.80
2018-08-25T00:42:40.998Z,15.80
2018-08-25T00:43:15.199Z,15.80
2018-08-25T00:43:49.287Z,15.80
2018-08-25T00:44:23.281Z,15.80
2018-08-25T00:44:57.016Z,15.80
2018-08-25T00:45:30.972Z,15.80
2018-08-25T00:46:04.904Z,15.80
2018-08-25T00:46:38.784Z,15.80
2018-08-25T00:47:13.084Z,15.80
2018-08-25T00:47:46.985Z,15.80
2018-08-25T00:48:21.025Z,15.70
2018-08-25T00:48:54.778Z,15.70
2018-08-25T00:49:28.669Z,15.70
2018-08-25T00:50:02.474Z,15.70
2018-08-25T00:50:36.399Z,15.70
2018-08-25T00:51:10.500Z,15.70
2018-08-25T00:51:44.660Z,15.80
2018-08-25T00:52:18.762Z,15.80
2018-08-25T00:52:53.034Z,15.70
2018-08-25T00:53:26.936Z,15.70
2018-08-25T00:54:00.855Z,15.70
2018-08-25T00:54:34.712Z,15.70
2018-08-25T00:55:08.599Z,15.70
2018-08-25T00:55:42.815Z,15.70
2018-08-25T00:56:16.825Z,15.70
2018-08-25T00:56:50.804Z,15.70
2018-08-25T00:57:24.575Z,15.70
2018-08-25T00:57:58.516Z,15.70
2018-08-25T00:58:32.430Z,15.80
2018-08-25T00:59:06.253Z,15.80
2018-08-25T00:59:40.287Z,15.80
2018-08-25T01:00:14.489Z,15.70
2018-08-25T01:00:48.596Z,15.80
2018-08-25T01:01:22.569Z,15.70
2018-08-25T01:01:56.785Z,15.70
2018-08-25T01:02:30.817Z,15.70
2018-08-25T01:03:04.733Z,15.70
2018-08-25T01:03:38.637Z,15.70
2018-08-25T01:04:13.070Z,15.70
2018-08-25T01:04:47.204Z,15.70
2018-08-25T01:05:21.072Z,15.70
2018-08-25T01:05:55.856Z,15.70
2018-08-25T01:06:29.648Z,15.70
2018-08-25T01:07:03.724Z,15.70
2018-08-25T01:07:37.643Z,15.70
2018-08-25T01:08:11.489Z,15.70
2018-08-25T01:08:45.589Z,15.70
2018-08-25T01:09:19.760Z,15.70
2018-08-25T01:09:53.737Z,15.60
2018-08-25T01:10:27.657Z,15.60
2018-08-25T01:11:01.432Z,15.60
2018-08-25T01:11:35.238Z,15.60
2018-08-25T01:12:09.142Z,15.60
2018-08-25T01:12:43.027Z,15.60
2018-08-25T01:13:17.000Z,15.60
2018-08-25T01:13:51.152Z,15.60
2018-08-25T01:14:25.317Z,15.60
2018-08-25T01:14:59.171Z,15.60
2018-08-25T01:15:33.357Z,15.60
2018-08-25T01:16:07.209Z,15.50
2018-08-25T01:16:41.059Z,15.60
2018-08-25T01:17:15.121Z,15.60
2018-08-25T01:17:49.216Z,15.60
2018-08-25T01:18:22.971Z,15.60
2018-08-25T01:18:56.964Z,15.60
2018-08-25T01:19:30.984Z,15.60
2018-08-25T01:20:05.292Z,15.60
2018-08-25T01:20:39.036Z,15.60
2018-08-25T01:21:13.093Z,15.60
2018-08-25T01:21:46.964Z,15.60
2018-08-25T01:22:20.952Z,15.60
2018-08-25T01:22:54.906Z,15.60
2018-08-25T01:23:28.698Z,15.60
2018-08-25T01:24:02.654Z,15.60
2018-08-25T01:24:36.368Z,15.60
2018-08-25T01:25:10.335Z,15.60
2018-08-25T01:25:44.666Z,15.60
2018-08-25T01:26:18.754Z,15.60
2018-08-25T01:26:53.392Z,15.60
2018-08-25T01:27:27.276Z,15.60
2018-08-25T01:28:01.225Z,15.60
2018-08-25T01:28:35.024Z,15.60
2018-08-25T01:29:09.092Z,15.60
2018-08-25T01:29:42.982Z,15.60
2018-08-25T01:30:17.459Z,15.60
2018-08-25T01:30:51.465Z,15.60
2018-08-25T01:31:27.805Z,15.60
2018-08-25T01:32:01.506Z,15.60
2018-08-25T01:32:35.592Z,15.60
2018-08-25T01:33:09.456Z,15.60
2018-08-25T01:33:43.344Z,15.60
2018-08-25T01:34:17.589Z,15.60
2018-08-25T01:34:52.106Z,15.50
2018-08-25T01:35:26.023Z,15.60
2018-08-25T01:35:59.962Z,15.50
2018-08-25T01:36:33.961Z,15.60
2018-08-25T01:37:07.844Z,15.60
2018-08-25T01:37:41.980Z,15.60
2018-08-25T01:38:15.726Z,15.60
2018-08-25T01:38:49.923Z,15.60
2018-08-25T01:39:24.153Z,15.60
2018-08-25T01:39:58.028Z,15.60
2018-08-25T01:40:32.259Z,15.60
2018-08-25T01:41:06.232Z,15.60
2018-08-25T01:41:40.280Z,15.60
2018-08-25T01:42:14.119Z,15.60
2018-08-25T01:42:48.170Z,15.60
2018-08-25T01:43:22.380Z,15.60
2018-08-25T01:43:56.529Z,15.60
2018-08-25T01:44:30.521Z,15.60
2018-08-25T01:45:04.402Z,15.60
2018-08-25T01:45:38.325Z,15.60
2018-08-25T01:46:12.486Z,15.60
2018-08-25T01:46:46.400Z,15.60
2018-08-25T01:47:20.971Z,15.60
2018-08-25T01:47:55.277Z,15.60
2018-08-25T01:48:29.335Z,15.60
2018-08-25T01:49:03.437Z,15.60
2018-08-25T01:49:37.456Z,15.60
2018-08-25T01:50:12.340Z,15.60
2018-08-25T01:50:46.022Z,15.60
2018-08-25T01:51:19.820Z,15.60
2018-08-25T01:51:53.970Z,15.60
2018-08-25T01:52:27.692Z,15.60
2018-08-25T01:53:01.704Z,15.60
2018-08-25T01:53:35.658Z,15.60
2018-08-25T01:54:10.824Z,15.60
2018-08-25T01:54:44.828Z,15.60
2018-08-25T01:55:18.612Z,15.60
2018-08-25T01:55:52.671Z,15.60
2018-08-25T01:56:26.607Z,15.60
2018-08-25T01:57:00.415Z,15.70
2018-08-25T01:57:34.375Z,15.60
2018-08-25T01:58:08.573Z,15.70
2018-08-25T01:58:42.582Z,15.70
2018-08-25T01:59:16.484Z,15.60
2018-08-25T01:59:50.377Z,15.70
2018-08-25T02:00:24.619Z,15.70
2018-08-25T02:00:58.648Z,15.60
2018-08-25T02:01:32.567Z,15.60
2018-08-25T02:02:06.249Z,15.60
2018-08-25T02:02:40.296Z,15.60
2018-08-25T02:03:14.271Z,15.60
2018-08-25T02:03:47.959Z,15.60
2018-08-25T02:04:22.451Z,15.60
2018-08-25T02:04:56.487Z,15.60
2018-08-25T02:05:31.289Z,15.60
2018-08-25T02:06:05.261Z,15.60
2018-08-25T02:06:39.524Z,15.60
2018-08-25T02:07:13.658Z,15.60
2018-08-25T02:07:47.590Z,15.60
2018-08-25T02:08:22.062Z,15.60
2018-08-25T02:08:56.104Z,15.60
2018-08-25T02:09:29.932Z,15.60
2018-08-25T02:10:04.199Z,15.70
2018-08-25T02:10:38.131Z,15.60
2018-08-25T02:11:11.990Z,15.70
2018-08-25T02:11:45.776Z,15.70
2018-08-25T02:12:19.566Z,15.70
2018-08-25T02:12:53.814Z,15.70
2018-08-25T02:13:28.013Z,15.70
2018-08-25T02:14:01.883Z,15.70
2018-08-25T02:14:36.144Z,15.70
2018-08-25T02:15:09.877Z,15.70
2018-08-25T02:15:43.724Z,15.70
2018-08-25T02:16:17.723Z,15.60
2018-08-25T02:16:51.650Z,15.70
2018-08-25T02:17:26.035Z,15.60
2018-08-25T02:18:01.183Z,15.60
2018-08-25T02:18:35.187Z,15.60
2018-08-25T02:19:09.371Z,15.60
2018-08-25T02:19:43.152Z,15.60
2018-08-25T02:20:17.296Z,15.60
2018-08-25T02:20:51.144Z,15.60
2018-08-25T02:21:25.159Z,15.60
2018-08-25T02:21:59.141Z,15.60
2018-08-25T02:22:33.429Z,15.50
2018-08-25T02:23:07.389Z,15.50
2018-08-25T02:23:41.426Z,15.50
2018-08-25T02:24:15.160Z,15.50
2018-08-25T02:24:49.366Z,15.50
2018-08-25T02:25:23.107Z,15.40
2018-08-25T02:25:57.042Z,15.50
2018-08-25T02:26:31.104Z,15.50
2018-08-25T02:27:04.981Z,15.50
2018-08-25T02:27:38.892Z,15.30
2018-08-25T02:28:12.721Z,15.30
2018-08-25T02:28:46.609Z,15.30
2018-08-25T02:29:20.441Z,15.30
2018-08-25T02:29:54.302Z,15.30
2018-08-25T02:30:28.468Z,15.30
2018-08-25T02:31:02.457Z,15.30
2018-08-25T02:31:36.525Z,15.30
2018-08-25T02:32:10.471Z,15.30
2018-08-25T02:32:44.520Z,15.30
2018-08-25T02:33:18.372Z,15.30
2018-08-25T02:33:52.272Z,15.30
2018-08-25T02:34:26.276Z,15.30
2018-08-25T02:35:00.303Z,15.30
2018-08-25T02:35:34.104Z,15.30
2018-08-25T02:36:07.924Z,15.30
2018-08-25T02:36:41.848Z,15.30
2018-08-25T02:37:15.827Z,15.30
2018-08-25T02:37:49.605Z,15.30
2018-08-25T02:38:23.472Z,15.20
2018-08-25T02:38:57.328Z,15.20
2018-08-25T02:39:31.359Z,15.20
2018-08-25T02:40:05.623Z,15.20
2018-08-25T02:40:39.452Z,15.20
2018-08-25T02:41:13.145Z,15.20
2018-08-25T02:41:47.040Z,15.20
2018-08-25T02:42:20.926Z,15.20
2018-08-25T02:42:54.547Z,15.20
2018-08-25T02:43:28.740Z,15.20
2018-08-25T02:44:02.720Z,15.20
2018-08-25T02:44:37.026Z,15.20
2018-08-25T02:45:11.070Z,15.20
2018-08-25T02:45:45.027Z,15.20
2018-08-25T02:46:19.045Z,15.20
2018-08-25T02:46:52.912Z,15.20
2018-08-25T02:47:26.710Z,15.20
2018-08-25T02:48:00.950Z,15.30
2018-08-25T02:48:34.908Z,15.30
2018-08-25T02:49:08.923Z,15.20
2018-08-25T02:49:42.732Z,15.20
2018-08-25T02:50:16.889Z,15.20
2018-08-25T02:50:50.879Z,15.20
2018-08-25T02:51:24.878Z,15.10
2018-08-25T02:51:58.782Z,15.10
2018-08-25T02:52:33.226Z,15.10
2018-08-25T02:53:07.042Z,15.00
2018-08-25T02:53:40.992Z,15.10
2018-08-25T02:54:14.908Z,15.00
2018-08-25T02:54:48.715Z,15.00
2018-08-25T02:55:22.828Z,15.00
2018-08-25T02:55:56.783Z,15.00
2018-08-25T02:56:31.017Z,14.90
2018-08-25T02:57:05.080Z,15.00
2018-08-25T02:57:39.077Z,14.90
2018-08-25T02:58:12.961Z,14.90
2018-08-25T02:58:46.845Z,14.90
2018-08-25T02:59:20.665Z,14.90
2018-08-25T02:59:54.652Z,14.90
2018-08-25T03:00:28.425Z,14.90
2018-08-25T03:01:02.265Z,14.80
2018-08-25T03:01:36.167Z,14.80
2018-08-25T03:02:10.112Z,14.80
2018-08-25T03:02:43.899Z,14.80
2018-08-25T03:03:18.054Z,14.70
2018-08-25T03:03:51.833Z,14.70
2018-08-25T03:04:25.699Z,14.80
2018-08-25T03:04:59.600Z,14.70
2018-08-25T03:05:33.559Z,14.70
2018-08-25T03:06:07.622Z,14.70
2018-08-25T03:06:41.760Z,14.60
2018-08-25T03:07:15.487Z,14.60
2018-08-25T03:07:50.416Z,14.60
2018-08-25T03:08:24.311Z,14.50
2018-08-25T03:08:58.157Z,14.60
2018-08-25T03:09:32.117Z,14.50
2018-08-25T03:10:06.096Z,14.50
2018-08-25T03:10:40.118Z,14.40
2018-08-25T03:11:14.304Z,14.40
2018-08-25T03:11:48.168Z,14.40
2018-08-25T03:12:22.001Z,14.30
2018-08-25T03:12:55.770Z,14.20
2018-08-25T03:13:29.499Z,14.30
2018-08-25T03:14:03.468Z,14.30
2018-08-25T03:14:37.893Z,14.40
2018-08-25T03:15:11.729Z,14.40
2018-08-25T03:15:45.469Z,14.30
2018-08-25T03:16:19.460Z,14.20
2018-08-25T03:16:53.426Z,14.30
2018-08-25T03:17:27.090Z,14.30
2018-08-25T03:18:01.092Z,14.30
2018-08-25T03:18:35.254Z,14.20
2018-08-25T03:19:09.337Z,14.10
2018-08-25T03:19:43.246Z,14.00
2018-08-25T03:20:17.008Z,14.00
2018-08-25T03:20:50.960Z,13.90
2018-08-25T03:21:24.745Z,13.90
2018-08-25T03:21:58.510Z,13.90
2018-08-25T03:22:32.380Z,13.90
2018-08-25T03:23:07.349Z,13.80
2018-08-25T03:23:41.402Z,13.80
2018-08-25T03:24:15.524Z,13.80
2018-08-25T03:24:49.393Z,13.80
2018-08-25T03:25:23.292Z,13.70
2018-08-25T03:25:57.190Z,13.60
2018-08-25T03:26:31.092Z,13.50
2018-08-25T03:27:04.943Z,13.60
2018-08-25T03:27:38.769Z,13.60
2018-08-25T03:28:12.813Z,13.60
2018-08-25T03:28:46.603Z,13.70
2018-08-25T03:29:20.699Z,13.70
2018-08-25T03:29:54.432Z,13.60
2018-08-25T03:30:28.395Z,13.50
2018-08-25T03:31:02.270Z,13.50
2018-08-25T03:31:36.960Z,13.60
2018-08-25T03:32:10.787Z,13.60
2018-08-25T03:32:44.747Z,13.60
2018-08-25T03:33:18.747Z,13.50
2018-08-25T03:33:52.757Z,13.50
2018-08-25T03:34:26.807Z,13.50
2018-08-25T03:35:00.808Z,13.50
2018-08-25T03:35:34.594Z,13.40
2018-08-25T03:36:08.873Z,13.30
2018-08-25T03:36:42.950Z,13.40
2018-08-25T03:37:16.572Z,13.40
2018-08-25T03:37:50.730Z,13.40
2018-08-25T03:38:24.648Z,13.40
2018-08-25T03:38:58.645Z,13.40
2018-08-25T03:39:32.354Z,13.30
2018-08-25T03:40:06.344Z,13.30
2018-08-25T03:40:40.275Z,13.30
2018-08-25T03:41:14.233Z,13.40
2018-08-25T03:41:48.088Z,13.50
2018-08-25T03:42:22.004Z,13.40
2018-08-25T03:42:55.861Z,13.30
2018-08-25T03:43:29.852Z,13.30
2018-08-25T03:44:03.590Z,13.30
2018-08-25T03:44:37.508Z,13.30
2018-08-25T03:45:11.500Z,13.30
2018-08-25T03:45:45.759Z,13.30
2018-08-25T03:46:19.539Z,13.30
2018-08-25T03:46:53.292Z,13.40
2018-08-25T03:47:27.511Z,13.40
2018-08-25T03:48:01.509Z,13.40
2018-08-25T03:48:35.340Z,13.50
2018-08-25T03:49:09.280Z,13.50
2018-08-25T03:49:43.149Z,13.40
2018-08-25T03:50:17.190Z,13.40
2018-08-25T03:50:51.053Z,13.30
2018-08-25T03:51:24.931Z,13.30
2018-08-25T03:51:58.918Z,13.20
2018-08-25T03:52:32.904Z,13.10
2018-08-25T03:53:06.931Z,13.10
2018-08-25T03:53:41.029Z,13.10
2018-08-25T03:54:15.101Z,13.10
2018-08-25T03:54:48.989Z,13.10
2018-08-25T03:55:23.143Z,13.10
2018-08-25T03:55:56.955Z,13.20
2018-08-25T03:56:31.079Z,13.20
2018-08-25T03:57:04.943Z,13.20
2018-08-25T03:57:38.769Z,13.20
2018-08-25T03:58:12.764Z,13.20
2018-08-25T03:58:46.854Z,13.20
2018-08-25T03:59:20.610Z,13.10
2018-08-25T03:59:54.550Z,13.10
2018-08-25T04:00:28.147Z,13.20
2018-08-25T04:01:01.941Z,13.20
2018-08-25T04:01:35.889Z,13.20
2018-08-25T04:02:09.592Z,13.30
2018-08-25T04:02:43.652Z,13.30
2018-08-25T04:03:17.767Z,13.30
2018-08-25T04:03:51.648Z,13.30
2018-08-25T04:04:25.620Z,13.30
2018-08-25T04:04:59.452Z,13.30
2018-08-25T04:05:33.421Z,13.30
2018-08-25T04:06:07.122Z,13.30
2018-08-25T04:06:42.179Z,13.30
2018-08-25T04:07:16.135Z,13.30
2018-08-25T04:07:51.772Z,13.30
2018-08-25T04:08:25.741Z,13.30
2018-08-25T04:08:59.575Z,13.30
2018-08-25T04:09:33.429Z,13.30
2018-08-25T04:10:07.354Z,13.30
2018-08-25T04:10:41.648Z,13.20
2018-08-25T04:11:15.691Z,13.20
2018-08-25T04:11:49.886Z,13.20
2018-08-25T04:12:23.723Z,13.20
2018-08-25T04:12:57.667Z,13.20
2018-08-25T04:13:31.381Z,13.20
2018-08-25T04:14:05.699Z,13.30
2018-08-25T04:14:39.878Z,13.30
2018-08-25T04:15:14.488Z,13.30
2018-08-25T04:15:48.562Z,13.40
2018-08-25T04:16:22.461Z,13.30
2018-08-25T04:16:56.193Z,13.30
2018-08-25T04:17:30.045Z,13.20
2018-08-25T04:18:03.874Z,13.20
2018-08-25T04:18:37.924Z,13.10
2018-08-25T04:19:14.001Z,13.10
2018-08-25T04:19:48.184Z,13.10
2018-08-25T04:20:22.134Z,13.10
2018-08-25T04:20:56.046Z,13.10
2018-08-25T04:21:29.814Z,13.10
2018-08-25T04:22:03.832Z,13.10
2018-08-25T04:22:37.675Z,13.10
2018-08-25T04:23:11.591Z,13.10
2018-08-25T04:23:46.358Z,13.20
2018-08-25T04:24:20.444Z,13.30
2018-08-25T04:24:54.234Z,13.20
2018-08-25T04:25:28.004Z,13.30
2018-08-25T04:26:02.028Z,13.30
2018-08-25T04:26:35.760Z,13.30
2018-08-25T04:27:09.569Z,13.30
2018-08-25T04:27:43.639Z,13.20
2018-08-25T04:28:17.891Z,13.30
2018-08-25T04:28:51.888Z,13.20
2018-08-25T04:29:25.751Z,13.20
2018-08-25T04:29:59.597Z,13.20
2018-08-25T04:30:33.642Z,13.20
2018-08-25T04:31:07.482Z,13.20
2018-08-25T04:31:41.300Z,13.20
2018-08-25T04:32:15.706Z,13.20
2018-08-25T04:32:49.924Z,13.20
2018-08-25T04:33:23.695Z,13.20
2018-08-25T04:33:57.359Z,13.20
2018-08-25T04:34:31.111Z,13.20
2018-08-25T04:35:05.223Z,13.30
2018-08-25T04:35:39.049Z,13.30
2018-08-25T04:36:12.849Z,13.20
2018-08-25T04:36:48.158Z,13.30
2018-08-25T04:37:22.001Z,13.40
2018-08-25T04:37:56.090Z,13.40
2018-08-25T04:38:30.041Z,13.40
2018-08-25T04:39:07.623Z,13.40
2018-08-25T04:39:41.687Z,13.40
2018-08-25T04:40:15.643Z,13.40
2018-08-25T04:40:50.094Z,13.30
2018-08-25T04:41:24.383Z,13.20
2018-08-25T04:41:58.104Z,13.10
2018-08-25T04:42:32.151Z,13.20
2018-08-25T04:43:06.101Z,13.20
2018-08-25T04:43:39.985Z,13.20
2018-08-25T04:44:13.884Z,13.10
2018-08-25T04:44:48.249Z,13.20
2018-08-25T04:45:22.156Z,13.20
2018-08-25T04:45:56.188Z,13.30
2018-08-25T04:46:29.984Z,13.20
2018-08-25T04:47:04.231Z,13.20
2018-08-25T04:47:37.976Z,13.20
2018-08-25T04:48:11.761Z,13.20
2018-08-25T04:48:45.867Z,13.20
2018-08-25T04:49:20.529Z,13.20
2018-08-25T04:49:54.668Z,13.20
2018-08-25T04:50:28.532Z,13.20
2018-08-25T04:51:02.398Z,13.20
2018-08-25T04:51:36.355Z,13.20
2018-08-25T04:52:10.310Z,13.20
2018-08-25T04:52:44.164Z,13.10
2018-08-25T04:53:18.092Z,13.00
2018-08-25T04:53:52.224Z,13.00
2018-08-25T04:54:26.253Z,13.00
2018-08-25T04:55:00.143Z,13.00
2018-08-25T04:55:34.004Z,13.00
2018-08-25T04:56:08.119Z,13.10
2018-08-25T04:56:41.981Z,13.10
2018-08-25T04:57:15.970Z,13.10
2018-08-25T04:57:50.295Z,13.10
2018-08-25T04:58:24.275Z,13.10
2018-08-25T04:58:58.199Z,13.10
2018-08-25T04:59:32.044Z,13.10
2018-08-25T05:00:05.908Z,13.10
2018-08-25T05:00:39.872Z,13.10
2018-08-25T05:01:13.909Z,13.10
2018-08-25T05:01:47.959Z,13.10
2018-08-25T05:02:22.209Z,13.10
2018-08-25T05:02:56.920Z,13.10
2018-08-25T05:03:30.714Z,13.10
2018-08-25T05:04:04.580Z,13.10
2018-08-25T05:04:38.271Z,13.10
2018-08-25T05:05:12.157Z,13.00
2018-08-25T05:05:46.134Z,13.00
2018-08-25T05:06:20.057Z,13.00
2018-08-25T05:06:54.484Z,13.10
2018-08-25T05:07:29.559Z,13.00
2018-08-25T05:08:04.181Z,13.00
2018-08-25T05:08:38.782Z,12.90
2018-08-25T05:09:12.625Z,12.90
2018-08-25T05:09:46.496Z,12.90
2018-08-25T05:10:20.551Z,12.90
2018-08-25T05:10:54.737Z,12.90
2018-08-25T05:11:29.414Z,12.80
2018-08-25T05:12:03.498Z,12.80
2018-08-25T05:12:37.440Z,12.80
2018-08-25T05:13:11.457Z,12.80
2018-08-25T05:13:45.277Z,12.70
2018-08-25T05:14:19.173Z,12.60
2018-08-25T05:14:54.072Z,12.70
2018-08-25T05:15:27.830Z,12.70
2018-08-25T05:16:01.733Z,12.70
2018-08-25T05:16:35.729Z,12.70
2018-08-25T05:17:09.469Z,12.70
2018-08-25T05:17:43.464Z,12.60
2018-08-25T05:18:17.623Z,12.70
2018-08-25T05:18:51.543Z,12.60
2018-08-25T05:19:25.465Z,12.60
2018-08-25T05:19:59.451Z,12.70
2018-08-25T05:20:33.363Z,12.70
2018-08-25T05:21:07.257Z,12.60
2018-08-25T05:21:41.364Z,12.60
2018-08-25T05:22:15.172Z,12.60
2018-08-25T05:22:49.037Z,12.60
2018-08-25T05:23:23.784Z,12.60
2018-08-25T05:23:58.048Z,12.60
2018-08-25T05:24:31.933Z,12.60
2018-08-25T05:25:06.687Z,12.60
2018-08-25T05:25:40.534Z,12.60
2018-08-25T05:26:14.550Z,12.60
2018-08-25T05:26:48.716Z,12.60
2018-08-25T05:27:22.412Z,12.70
2018-08-25T05:27:57.457Z,12.70
2018-08-25T05:28:31.379Z,12.70
2018-08-25T05:29:05.168Z,12.80
2018-08-25T05:29:39.093Z,12.80
2018-08-25T05:30:13.408Z,12.90
2018-08-25T05:30:47.296Z,12.90
2018-08-25T05:31:21.175Z,12.90
2018-08-25T05:31:55.340Z,13.00
2018-08-25T05:32:29.609Z,13.00
2018-08-25T05:33:03.440Z,13.00
2018-08-25T05:33:37.378Z,12.90
2018-08-25T05:34:11.221Z,12.90
2018-08-25T05:34:45.121Z,12.90
2018-08-25T05:35:18.831Z,12.90
2018-08-25T05:35:52.744Z,13.00
2018-08-25T05:36:26.999Z,13.00
2018-08-25T05:37:01.213Z,13.00
2018-08-25T05:37:35.365Z,13.00
2018-08-25T05:38:09.020Z,13.00
2018-08-25T05:38:43.336Z,12.90
2018-08-25T05:39:17.195Z,12.90
2018-08-25T05:39:51.348Z,12.90
2018-08-25T05:40:25.999Z,13.00
2018-08-25T05:41:00.323Z,12.90
2018-08-25T05:41:34.124Z,12.90
2018-08-25T05:42:08.263Z,12.90
2018-08-25T05:42:42.410Z,12.90
2018-08-25T05:43:16.116Z,12.90
2018-08-25T05:43:49.869Z,12.80
2018-08-25T05:44:23.759Z,12.80
2018-08-25T05:44:58.500Z,12.70
2018-08-25T05:45:32.698Z,12.70
2018-08-25T05:46:06.747Z,12.70
2018-08-25T05:46:41.220Z,12.70
2018-08-25T05:47:15.001Z,12.80
2018-08-25T05:47:48.914Z,12.80
2018-08-25T05:48:22.804Z,12.80
2018-08-25T05:48:56.801Z,12.90
2018-08-25T05:49:30.992Z,12.90
2018-08-25T05:50:05.100Z,12.90
2018-08-25T05:50:40.280Z,13.00
2018-08-25T05:51:14.169Z,13.00
2018-08-25T05:51:48.130Z,13.10
2018-08-25T05:52:22.513Z,13.10
2018-08-25T05:52:56.349Z,13.10
2018-08-25T05:53:30.606Z,13.10
2018-08-25T05:54:04.560Z,13.00
2018-08-25T05:54:38.457Z,13.00
2018-08-25T05:55:12.452Z,13.00
2018-08-25T05:55:46.207Z,13.10
2018-08-25T05:56:20.153Z,13.10
2018-08-25T05:56:54.293Z,13.10
2018-08-25T05:57:28.802Z,13.10
2018-08-25T05:58:03.374Z,13.10
2018-08-25T05:58:37.560Z,13.10
2018-08-25T05:59:11.665Z,13.20
2018-08-25T05:59:45.918Z,13.20
2018-08-25T06:00:20.077Z,13.20
2018-08-25T06:00:53.869Z,13.10
2018-08-25T06:01:27.589Z,13.20
2018-08-25T06:02:03.021Z,13.10
2018-08-25T06:02:37.517Z,13.00
2018-08-25T06:03:11.393Z,13.00
2018-08-25T06:03:45.431Z,13.00
2018-08-25T06:04:19.568Z,13.00
2018-08-25T06:04:53.305Z,13.00
2018-08-25T06:05:27.271Z,13.10
2018-08-25T06:06:01.507Z,13.10
2018-08-25T06:06:35.829Z,13.10
2018-08-25T06:07:09.714Z,13.00
2018-08-25T06:07:43.593Z,13.10
2018-08-25T06:08:17.509Z,13.20
2018-08-25T06:08:51.565Z,13.30
2018-08-25T06:09:25.364Z,13.30
2018-08-25T06:09:59.399Z,13.20
2018-08-25T06:10:33.856Z,13.20
2018-08-25T06:11:08.271Z,13.30
2018-08-25T06:11:42.631Z,13.40
2018-08-25T06:12:16.399Z,13.50
2018-08-25T06:12:50.327Z,13.50
2018-08-25T06:13:24.222Z,13.40
2018-08-25T06:13:58.296Z,13.40
2018-08-25T06:14:32.620Z,13.30
2018-08-25T06:15:06.817Z,13.30
2018-08-25T06:15:40.751Z,13.20
2018-08-25T06:16:14.716Z,13.20
2018-08-25T06:16:48.609Z,13.20
2018-08-25T06:17:22.704Z,13.20
2018-08-25T06:17:56.789Z,13.20
2018-08-25T06:18:31.080Z,13.10
2018-08-25T06:19:05.412Z,13.10
2018-08-25T06:19:39.892Z,13.20
2018-08-25T06:20:13.831Z,13.20
2018-08-25T06:20:47.892Z,13.30
2018-08-25T06:21:21.741Z,13.40
2018-08-25T06:21:55.592Z,13.50
2018-08-25T06:22:29.632Z,13.40
2018-08-25T06:23:04.553Z,13.50
2018-08-25T06:23:39.042Z,13.60
2018-08-25T06:24:13.443Z,13.60
2018-08-25T06:24:47.538Z,13.50
2018-08-25T06:25:21.401Z,13.50
2018-08-25T06:25:55.476Z,13.50
2018-08-25T06:26:29.283Z,13.40
2018-08-25T06:27:03.601Z,13.40
2018-08-25T06:27:38.207Z,13.50
2018-08-25T06:28:12.548Z,13.50
2018-08-25T06:28:46.640Z,13.50
2018-08-25T06:29:20.649Z,13.50
2018-08-25T06:29:54.428Z,13.50
2018-08-25T06:30:28.486Z,13.60
2018-08-25T06:31:02.392Z,13.60
2018-08-25T06:31:36.608Z,13.60
2018-08-25T06:32:10.881Z,13.60
2018-08-25T06:32:45.011Z,13.60
2018-08-25T06:33:19.116Z,13.50
2018-08-25T06:33:52.972Z,13.40
2018-08-25T06:34:26.682Z,13.30
2018-08-25T06:35:00.936Z,13.40
2018-08-25T06:35:36.451Z,13.50
2018-08-25T06:36:11.040Z,13.60
2018-08-25T06:36:45.142Z,13.50
2018-08-25T06:37:19.081Z,13.50
2018-08-25T06:37:52.976Z,13.50
2018-08-25T06:38:27.140Z,13.40
2018-08-25T06:39:01.044Z,13.40
2018-08-25T06:39:37.186Z,13.40
2018-08-25T06:40:11.412Z,13.40
2018-08-25T06:40:45.943Z,13.40
2018-08-25T06:41:19.693Z,13.30
2018-08-25T06:41:53.796Z,13.30
2018-08-25T06:42:27.771Z,13.30
2018-08-25T06:43:01.696Z,13.40
2018-08-25T06:43:35.809Z,13.40
2018-08-25T06:44:10.277Z,13.40
2018-08-25T06:44:44.877Z,13.30
2018-08-25T06:45:18.889Z,13.40
2018-08-25T06:45:58.531Z,13.50
2018-08-25T06:46:32.288Z,13.50
2018-08-25T06:47:07.168Z,13.60
2018-08-25T06:47:42.878Z,13.60
2018-08-25T06:48:18.687Z,13.60
2018-08-25T06:48:52.857Z,13.50
2018-08-25T06:49:26.817Z,13.50
2018-08-25T06:50:01.073Z,13.50
2018-08-25T06:50:35.214Z,13.50
2018-08-25T06:51:10.018Z,13.50
2018-08-25T06:51:44.525Z,13.50
2018-08-25T06:52:19.538Z,13.60
2018-08-25T06:52:53.406Z,13.60
2018-08-25T06:53:27.399Z,13.70
2018-08-25T06:54:01.208Z,13.80
2018-08-25T06:54:35.409Z,13.90
2018-08-25T06:55:10.687Z,14.00
2018-08-25T06:55:45.146Z,13.90
2018-08-25T06:56:19.367Z,13.90
2018-08-25T06:56:53.668Z,13.80
2018-08-25T06:57:27.776Z,13.80
2018-08-25T06:58:01.737Z,13.90
2018-08-25T06:58:35.564Z,13.90
2018-08-25T06:59:09.989Z,13.80
2018-08-25T06:59:44.608Z,13.80
2018-08-25T07:00:18.595Z,13.80
2018-08-25T07:00:53.009Z,13.80
2018-08-25T07:01:26.776Z,13.80
2018-08-25T07:02:00.760Z,13.90
2018-08-25T07:02:34.555Z,13.90
2018-08-25T07:03:08.356Z,13.90
2018-08-25T07:03:43.779Z,13.90
2018-08-25T07:04:18.300Z,14.00
2018-08-25T07:04:52.193Z,13.90
2018-08-25T07:05:26.217Z,13.90
2018-08-25T07:06:00.055Z,13.80
2018-08-25T07:06:33.865Z,13.80
2018-08-25T07:07:07.679Z,13.80
2018-08-25T07:07:42.037Z,13.80
2018-08-25T07:08:16.372Z,13.90
2018-08-25T07:08:50.701Z,14.00
2018-08-25T07:09:24.948Z,14.10
2018-08-25T07:09:59.042Z,14.10
2018-08-25T07:10:33.157Z,14.10
2018-08-25T07:11:07.057Z,14.10
2018-08-25T07:11:42.407Z,14.10
2018-08-25T07:12:16.948Z,14.10
2018-08-25T07:12:53.021Z,14.10
2018-08-25T07:13:33.548Z,14.00
2018-08-25T07:14:07.727Z,14.00
2018-08-25T07:14:42.245Z,14.00
2018-08-25T07:15:16.552Z,13.80
2018-08-25T07:15:50.743Z,13.70
2018-08-25T07:16:24.745Z,13.80
2018-08-25T07:16:58.925Z,13.90
2018-08-25T07:17:32.736Z,14.00
2018-08-25T07:18:06.741Z,14.00
2018-08-25T07:18:40.632Z,14.10
2018-08-25T07:19:14.626Z,14.10